Time;durP1;ratioP1;P1;durP2;ratioP2;P2;SDS_P1;SDS_P2;PMS_P1;PMS_P2;Temp;Humidity;BMP_temperature;BMP_pressure;BME280_temperature;BME280_humidity;BME280_pressure;Samples;Min_cycle;Max_cycle;Signal;HPM_P1;HPM_P2
2021/03/19 00:01:12;;;;;;;34.35;21.60;;;2.60;96.90;;;;;;5049839;28;20036;-77
2021/03/19 00:03:37;;;;;;;36.10;21.42;;;2.50;96.80;;;;;;5047295;28;20041;-77
2021/03/19 00:06:03;;;;;;;31.25;21.90;;;2.50;96.90;;;;;;5020727;28;20029;-77
2021/03/19 00:08:28;;;;;;;35.10;21.23;;;2.50;96.90;;;;;;5030458;28;20064;-78
2021/03/19 00:10:54;;;;;;;30.77;20.30;;;2.50;96.80;;;;;;5024702;28;20055;-78
2021/03/19 00:13:19;;;;;;;32.22;20.13;;;2.60;97.20;;;;;;5017845;28;20022;-77
2021/03/19 00:15:45;;;;;;;34.25;20.33;;;2.50;96.80;;;;;;5031648;28;20519;-77
2021/03/19 00:18:11;;;;;;;37.63;20.85;;;2.50;96.80;;;;;;5033367;28;20042;-77
2021/03/19 00:20:46;;;;;;;36.20;19.70;;;2.40;96.80;;;;;;5058880;28;20452;-78
2021/03/19 00:23:11;;;;;;;36.95;25.30;;;2.40;96.70;;;;;;5016159;28;20036;-77
2021/03/19 00:25:37;;;;;;;36.75;23.00;;;2.30;96.80;;;;;;5028656;28;20030;-78
2021/03/19 00:28:03;;;;;;;31.08;22.65;;;2.30;97.00;;;;;;5018654;28;20024;-77
2021/03/19 00:30:29;;;;;;;34.90;21.77;;;2.30;97.00;;;;;;5008318;28;20041;-77
2021/03/19 00:32:54;;;;;;;36.78;20.83;;;2.40;97.10;;;;;;5047118;28;20032;-77
2021/03/19 00:35:20;;;;;;;30.73;19.85;;;2.40;97.30;;;;;;5044894;28;20041;-77
2021/03/19 00:37:45;;;;;;;34.28;21.42;;;2.30;97.20;;;;;;5013884;28;20049;-77
2021/03/19 00:40:12;;;;;;;31.52;19.20;;;2.20;96.90;;;;;;5029937;28;20023;-77
2021/03/19 00:42:41;;;;;;;35.08;21.92;;;2.20;97.00;;;;;;5036447;28;20308;-77
2021/03/19 00:45:08;;;;;;;34.72;21.55;;;2.10;97.10;;;;;;5020854;28;20031;-77
2021/03/19 00:47:33;;;;;;;33.50;21.05;;;2.10;97.10;;;;;;5012659;28;20022;-77
2021/03/19 00:49:59;;;;;;;36.70;22.15;;;2.20;97.30;;;;;;5021468;28;20047;-77
2021/03/19 00:52:25;;;;;;;30.58;20.25;;;2.20;97.30;;;;;;5019051;28;20036;-77
2021/03/19 00:54:50;;;;;;;35.80;20.40;;;2.30;97.30;;;;;;5035635;28;20029;-77
2021/03/19 00:57:15;;;;;;;38.60;24.20;;;2.20;97.20;;;;;;5039394;28;20052;-77
2021/03/19 00:59:41;;;;;;;35.50;23.15;;;2.30;97.30;;;;;;5015165;28;20036;-77
2021/03/19 01:02:06;;;;;;;40.85;25.88;;;2.30;97.40;;;;;;5040681;28;20373;-77
2021/03/19 01:04:32;;;;;;;37.22;24.25;;;2.30;97.40;;;;;;5026636;28;20033;-77
2021/03/19 01:06:58;;;;;;;34.25;21.40;;;2.30;98.00;;;;;;5031884;28;20063;-77
2021/03/19 01:09:23;;;;;;;30.40;20.15;;;2.30;97.90;;;;;;5024016;28;20032;-77
2021/03/19 01:11:49;;;;;;;39.83;22.00;;;2.30;97.60;;;;;;5025977;28;20024;-77
2021/03/19 01:14:15;;;;;;;35.03;20.83;;;2.30;97.60;;;;;;5023488;28;20028;-77
2021/03/19 01:16:41;;;;;;;37.10;21.95;;;2.20;97.40;;;;;;5059082;28;20037;-77
2021/03/19 01:19:07;;;;;;;37.78;21.70;;;2.20;97.50;;;;;;5024151;28;20491;-77
2021/03/19 01:21:32;;;;;;;35.80;22.63;;;2.10;97.00;;;;;;5027172;28;20113;-77
2021/03/19 01:23:58;;;;;;;34.45;23.15;;;1.90;97.50;;;;;;5029439;28;20036;-77
2021/03/19 01:26:23;;;;;;;37.13;21.98;;;1.90;97.60;;;;;;5014158;28;20034;-77
2021/03/19 01:28:49;;;;;;;35.20;23.67;;;2.00;97.50;;;;;;5038371;28;20037;-77
2021/03/19 01:31:15;;;;;;;34.50;20.27;;;2.00;98.00;;;;;;5056828;28;20443;-76
2021/03/19 01:33:40;;;;;;;36.72;22.88;;;2.00;97.70;;;;;;5018783;28;20109;-76
2021/03/19 01:36:07;;;;;;;39.17;22.40;;;2.10;97.40;;;;;;5018498;28;20123;-76
2021/03/19 01:38:36;;;;;;;35.80;22.48;;;2.10;97.90;;;;;;5039262;28;20333;-76
2021/03/19 01:41:02;;;;;;;39.42;25.52;;;2.10;97.70;;;;;;5017636;28;20477;-75
2021/03/19 01:43:34;;;;;;;41.45;25.33;;;2.10;98.00;;;;;;5052765;28;20037;-76
2021/03/19 01:46:36;;;;;;;40.03;25.50;;;2.10;97.90;;;;;;5033576;28;20124;-76
2021/03/19 01:49:39;;;;;;;37.65;22.67;;;2.10;97.90;;;;;;5050635;28;20431;-75
2021/03/19 01:52:42;;;;;;;37.90;25.95;;;2.20;98.00;;;;;;5052282;28;20029;-76
2021/03/19 01:55:45;;;;;;;34.45;20.15;;;2.20;98.00;;;;;;5048364;28;20033;-76
2021/03/19 01:58:48;;;;;;;36.80;23.88;;;2.30;98.10;;;;;;5058858;28;20033;-76
2021/03/19 02:01:51;;;;;;;39.70;25.02;;;2.30;97.90;;;;;;5052250;28;20029;-77
2021/03/19 02:04:54;;;;;;;32.08;21.88;;;2.30;98.00;;;;;;5065619;28;20128;-76
2021/03/19 02:07:57;;;;;;;30.95;18.52;;;2.30;98.00;;;;;;5037583;28;20421;-76
2021/03/19 02:11:00;;;;;;;30.00;19.90;;;2.40;97.80;;;;;;5054293;28;20025;-76
2021/03/19 02:14:02;;;;;;;33.10;21.17;;;2.40;97.70;;;;;;5040379;28;20033;-76
2021/03/19 02:17:06;;;;;;;32.67;19.30;;;2.40;97.60;;;;;;5048119;28;20484;-76
2021/03/19 02:20:09;;;;;;;29.92;20.67;;;2.40;97.60;;;;;;5051946;28;20025;-76
2021/03/19 02:23:11;;;;;;;26.48;17.67;;;2.40;97.80;;;;;;5052025;28;20033;-76
2021/03/19 02:26:14;;;;;;;29.60;19.40;;;2.30;97.50;;;;;;5048664;28;20558;-76
2021/03/19 02:29:17;;;;;;;31.13;20.58;;;2.30;97.70;;;;;;5049581;28;20053;-76
2021/03/19 02:32:03;;;;;;;25.52;17.02;;;2.30;97.70;;;;;;5061988;28;20064;-76
2021/03/19 02:34:32;;;;;;;26.52;16.65;;;2.20;97.80;;;;;;5035736;28;20032;-76
2021/03/19 02:36:58;;;;;;;28.10;17.90;;;2.20;97.60;;;;;;5019371;28;20039;-76
2021/03/19 02:39:23;;;;;;;26.40;16.48;;;2.20;97.50;;;;;;5037807;28;20024;-75
2021/03/19 02:41:49;;;;;;;27.17;17.95;;;2.20;97.50;;;;;;5018122;28;20032;-75
2021/03/19 02:44:15;;;;;;;25.95;16.75;;;2.10;97.40;;;;;;5036142;28;20032;-76
2021/03/19 02:46:41;;;;;;;26.27;15.88;;;2.10;97.30;;;;;;5021701;28;20028;-76
2021/03/19 02:49:06;;;;;;;24.90;15.80;;;2.10;97.70;;;;;;5020394;28;20039;-76
2021/03/19 02:51:32;;;;;;;24.75;16.00;;;2.10;98.00;;;;;;5057572;28;20036;-76
2021/03/19 02:53:57;;;;;;;24.80;16.10;;;2.10;97.80;;;;;;5041757;28;20435;-76
2021/03/19 02:56:23;;;;;;;24.45;15.43;;;2.10;97.80;;;;;;5024453;28;20049;-76
2021/03/19 02:58:49;;;;;;;26.75;16.48;;;2.10;98.00;;;;;;5051969;28;20562;-76
2021/03/19 03:01:14;;;;;;;25.10;17.15;;;2.10;98.00;;;;;;5049653;28;20037;-76
2021/03/19 03:03:40;;;;;;;21.75;17.02;;;2.10;97.90;;;;;;5027417;28;20114;-76
2021/03/19 03:06:06;;;;;;;23.10;15.40;;;2.10;98.00;;;;;;5031460;28;20495;-76
2021/03/19 03:08:31;;;;;;;23.20;14.93;;;2.10;98.10;;;;;;5015307;28;20445;-76
2021/03/19 03:10:57;;;;;;;22.95;14.90;;;2.10;98.10;;;;;;5021539;28;20040;-76
2021/03/19 03:13:22;;;;;;;20.92;14.07;;;2.10;98.10;;;;;;5058289;28;20056;-76
2021/03/19 03:15:48;;;;;;;21.45;14.35;;;2.20;98.00;;;;;;5021598;28;20040;-76
2021/03/19 03:18:14;;;;;;;22.67;16.52;;;2.10;97.90;;;;;;5051112;28;20392;-76
2021/03/19 03:20:51;;;;;;;23.90;16.52;;;2.10;97.90;;;;;;5026036;28;20033;-76
2021/03/19 03:23:17;;;;;;;21.15;14.07;;;2.10;97.90;;;;;;5027062;28;20068;-76
2021/03/19 03:25:42;;;;;;;22.88;13.95;;;2.10;98.00;;;;;;5041357;28;20119;-76
2021/03/19 03:28:08;;;;;;;26.42;15.43;;;2.20;97.90;;;;;;5054541;28;20582;-76
2021/03/19 03:30:38;;;;;;;23.45;15.68;;;2.10;97.90;;;;;;5030227;28;20033;-77
2021/03/19 03:33:04;;;;;;;25.23;15.30;;;2.10;97.80;;;;;;5052271;28;20067;-76
2021/03/19 03:35:30;;;;;;;29.40;17.45;;;2.10;97.90;;;;;;5031197;28;20111;-76
2021/03/19 03:37:56;;;;;;;23.85;16.35;;;2.10;97.90;;;;;;5023356;28;20020;-77
2021/03/19 03:40:30;;;;;;;22.45;15.57;;;2.10;97.80;;;;;;5043877;28;20439;-77
2021/03/19 03:42:56;;;;;;;23.70;14.07;;;2.10;97.70;;;;;;5023298;28;20024;-77
2021/03/19 03:45:22;;;;;;;25.33;17.42;;;2.10;97.70;;;;;;5039008;28;20266;-76
2021/03/19 03:47:47;;;;;;;24.55;15.68;;;2.10;97.70;;;;;;5024421;28;20489;-76
2021/03/19 03:50:15;;;;;;;27.83;17.35;;;2.10;97.90;;;;;;5017227;28;20484;-76
2021/03/19 03:52:40;;;;;;;35.30;16.98;;;2.10;97.60;;;;;;5024492;28;20429;-76
2021/03/19 03:55:06;;;;;;;24.73;15.13;;;2.10;97.60;;;;;;5036926;28;20013;-76
2021/03/19 03:57:32;;;;;;;26.58;16.45;;;2.20;97.40;;;;;;5010405;28;20033;-76
2021/03/19 03:59:58;;;;;;;27.85;15.93;;;2.10;97.40;;;;;;5021394;28;20044;-76
2021/03/19 04:02:26;;;;;;;28.20;15.90;;;2.10;97.60;;;;;;5027616;28;20021;-77
2021/03/19 04:04:51;;;;;;;26.70;17.70;;;2.00;97.40;;;;;;5025361;28;20123;-76
2021/03/19 04:07:17;;;;;;;27.77;16.85;;;2.00;97.40;;;;;;5020142;28;20427;-77
2021/03/19 04:09:43;;;;;;;26.05;16.95;;;2.00;97.50;;;;;;5012264;28;20043;-76
2021/03/19 04:12:10;;;;;;;22.45;14.25;;;1.90;97.50;;;;;;5037825;28;20327;-77
2021/03/19 04:14:36;;;;;;;27.83;15.45;;;1.90;97.50;;;;;;5041465;28;20036;-77
2021/03/19 04:17:08;;;;;;;26.17;16.70;;;1.80;97.30;;;;;;5039604;28;20039;-77
2021/03/19 04:19:34;;;;;;;26.35;14.82;;;1.70;97.10;;;;;;5014364;28;20443;-77
2021/03/19 04:21:59;;;;;;;26.55;14.95;;;1.70;97.20;;;;;;5020046;28;20033;-77
2021/03/19 04:24:25;;;;;;;30.42;19.00;;;1.50;96.90;;;;;;5021624;28;20136;-77
2021/03/19 04:26:50;;;;;;;31.85;16.08;;;1.30;97.10;;;;;;5024066;28;20025;-77
2021/03/19 04:29:16;;;;;;;24.50;13.95;;;1.20;97.10;;;;;;5037189;28;20036;-77
2021/03/19 04:31:41;;;;;;;27.73;15.07;;;1.20;97.30;;;;;;5045259;28;20040;-77
2021/03/19 04:34:07;;;;;;;26.65;15.13;;;1.20;96.80;;;;;;5027673;28;20024;-77
2021/03/19 04:36:43;;;;;;;30.65;19.30;;;1.10;96.70;;;;;;5023566;28;20033;-77
2021/03/19 04:39:10;;;;;;;29.67;16.48;;;0.90;96.60;;;;;;5018582;28;20852;-77
2021/03/19 04:41:36;;;;;;;28.20;17.45;;;0.80;96.80;;;;;;5046248;28;20483;-76
2021/03/19 04:44:02;;;;;;;24.70;15.65;;;0.70;96.90;;;;;;5029101;28;20033;-77
2021/03/19 04:46:28;;;;;;;25.10;13.93;;;0.60;97.00;;;;;;5026327;28;20036;-77
2021/03/19 04:48:53;;;;;;;25.85;16.27;;;0.60;97.00;;;;;;5055233;28;20039;-77
2021/03/19 04:51:19;;;;;;;23.88;13.88;;;0.60;96.60;;;;;;5052181;28;20052;-77
2021/03/19 04:53:44;;;;;;;20.13;13.05;;;0.60;96.70;;;;;;5012947;28;20032;-77
2021/03/19 04:56:10;;;;;;;29.65;14.90;;;0.50;96.40;;;;;;5018105;28;20032;-77
2021/03/19 04:58:35;;;;;;;23.27;15.50;;;0.50;96.60;;;;;;4670694;28;10000266;-77
2021/03/19 05:01:01;;;;;;;24.23;14.35;;;0.30;96.40;;;;;;5026612;28;20377;-77
2021/03/19 05:03:26;;;;;;;24.08;14.25;;;0.30;96.90;;;;;;5011786;28;20026;-77
2021/03/19 05:05:52;;;;;;;22.90;14.73;;;0.20;96.30;;;;;;5007033;28;20040;-77
2021/03/19 05:08:18;;;;;;;23.92;14.80;;;0.20;96.40;;;;;;5010926;28;20033;-77
2021/03/19 05:10:43;;;;;;;23.52;13.60;;;0.10;96.60;;;;;;5037491;28;20071;-77
2021/03/19 05:13:09;;;;;;;25.85;15.32;;;0.00;96.30;;;;;;5026818;28;20082;-77
2021/03/19 05:15:36;;;;;;;24.00;14.20;;;0.00;96.50;;;;;;5049737;28;20083;-77
2021/03/19 05:18:01;;;;;;;21.25;13.23;;;0.00;96.70;;;;;;5055347;28;20036;-77
2021/03/19 05:20:27;;;;;;;24.50;14.15;;;-0.10;96.50;;;;;;5014977;28;20022;-77
2021/03/19 05:22:53;;;;;;;27.90;15.60;;;-0.10;96.60;;;;;;5012134;28;20028;-77
2021/03/19 05:25:21;;;;;;;18.58;11.90;;;-0.10;96.20;;;;;;5041350;28;20495;-77
2021/03/19 05:27:46;;;;;;;23.77;14.00;;;-0.10;96.80;;;;;;5010031;28;20116;-77
2021/03/19 05:30:13;;;;;;;21.77;14.05;;;-0.10;96.30;;;;;;5019344;28;20171;-77
2021/03/19 05:32:39;;;;;;;23.70;15.32;;;-0.10;96.70;;;;;;5036927;28;20025;-77
2021/03/19 05:35:06;;;;;;;23.80;14.88;;;-0.10;97.00;;;;;;5019425;28;20089;-77
2021/03/19 05:37:31;;;;;;;22.58;14.23;;;-0.20;96.90;;;;;;5026931;28;20040;-77
2021/03/19 05:39:58;;;;;;;22.23;12.10;;;-0.20;97.00;;;;;;5038354;28;20044;-77
2021/03/19 05:42:34;;;;;;;20.60;13.73;;;-0.20;97.00;;;;;;5026624;28;20029;-77
2021/03/19 05:45:21;;;;;;;20.00;13.30;;;-0.20;96.90;;;;;;5013432;28;20033;-77
2021/03/19 05:47:46;;;;;;;20.33;12.88;;;-0.20;97.00;;;;;;5056600;28;20550;-77
2021/03/19 05:50:29;;;;;;;22.65;13.85;;;-0.20;97.10;;;;;;5036707;28;20044;-77
2021/03/19 05:52:56;;;;;;;24.40;14.10;;;-0.20;97.00;;;;;;5011138;28;20680;-77
2021/03/19 05:55:23;;;;;;;23.23;13.20;;;-0.30;97.10;;;;;;5008238;28;20033;-77
2021/03/19 05:57:54;;;;;;;21.73;12.75;;;-0.30;97.00;;;;;;5030797;28;20167;-77
2021/03/19 06:00:22;;;;;;;23.52;15.35;;;-0.40;96.90;;;;;;5006060;28;20054;-78
2021/03/19 06:02:47;;;;;;;18.60;12.63;;;-0.40;97.30;;;;;;5007699;28;20206;-77
2021/03/19 06:05:24;;;;;;;20.33;13.23;;;-0.40;97.00;;;;;;5020951;28;20029;-77
2021/03/19 06:07:50;;;;;;;18.98;12.82;;;-0.40;97.00;;;;;;5019735;28;20085;-77
2021/03/19 06:10:22;;;;;;;21.63;14.25;;;-0.40;97.00;;;;;;5034204;28;20106;-77
2021/03/19 06:13:13;;;;;;;22.33;14.70;;;-0.40;97.00;;;;;;5073581;28;20033;-77
2021/03/19 06:15:43;;;;;;;23.77;13.38;;;-0.40;97.30;;;;;;5013544;28;20188;-77
2021/03/19 06:18:36;;;;;;;18.95;12.38;;;-0.40;97.20;;;;;;5015907;28;20032;-77
2021/03/19 06:21:05;;;;;;;22.95;13.35;;;-0.40;97.20;;;;;;5036193;28;20039;-77
2021/03/19 06:23:31;;;;;;;25.42;14.75;;;-0.40;97.30;;;;;;5022047;28;20022;-77
2021/03/19 06:26:25;;;;;;;22.40;12.40;;;-0.40;97.30;;;;;;5051413;28;20373;-77
2021/03/19 06:29:06;;;;;;;21.75;12.65;;;-0.40;97.30;;;;;;5034686;28;20053;-78
2021/03/19 06:31:32;;;;;;;21.90;12.25;;;-0.40;97.10;;;;;;5008535;28;20033;-77
2021/03/19 06:34:18;;;;;;;22.65;16.17;;;-0.50;97.30;;;;;;5017832;28;20036;-77
2021/03/19 06:37:04;;;;;;;17.27;13.02;;;-0.50;97.40;;;;;;5029879;28;20052;-78
2021/03/19 06:39:54;;;;;;;18.88;12.93;;;-0.40;97.60;;;;;;5014270;28;20029;-77
2021/03/19 06:42:20;;;;;;;20.33;13.52;;;-0.40;97.30;;;;;;5041115;28;20060;-77
2021/03/19 06:45:04;;;;;;;20.75;14.13;;;-0.40;97.60;;;;;;5043860;28;20373;-77
2021/03/19 06:47:39;;;;;;;23.58;13.65;;;-0.40;97.40;;;;;;5047652;28;20072;-76
2021/03/19 06:50:05;;;;;;;15.70;12.02;;;-0.40;97.60;;;;;;5029848;28;20040;-77
2021/03/19 06:52:30;;;;;;;22.27;13.07;;;-0.40;97.70;;;;;;5011813;28;20033;-77
2021/03/19 06:55:00;;;;;;;22.23;13.65;;;-0.40;97.70;;;;;;5037105;28;20053;-77
2021/03/19 06:57:44;;;;;;;20.20;13.68;;;-0.30;97.60;;;;;;5024823;28;20029;-77
2021/03/19 07:00:11;;;;;;;19.48;12.48;;;-0.20;97.80;;;;;;5028160;28;20492;-77
2021/03/19 07:03:30;;;;;;;21.65;13.75;;;-0.20;97.80;;;;;;5009126;28;20401;-77
2021/03/19 07:06:45;;;;;;;18.40;12.43;;;-0.30;97.40;;;;;;4983542;28;20072;-77
2021/03/19 07:09:20;;;;;;;21.92;13.35;;;-0.20;97.50;;;;;;5015876;28;20029;-77
2021/03/19 07:12:15;;;;;;;18.70;13.98;;;-0.20;97.60;;;;;;5044438;28;20405;-77
2021/03/19 07:15:02;;;;;;;17.48;11.02;;;-0.10;97.90;;;;;;5010591;28;20030;-77
2021/03/19 07:17:39;;;;;;;19.17;13.13;;;-0.10;97.80;;;;;;5048537;28;20063;-77
2021/03/19 07:20:28;;;;;;;16.17;12.27;;;0.00;97.70;;;;;;5052558;28;20507;-77
2021/03/19 07:23:15;;;;;;;15.02;11.65;;;-0.10;97.70;;;;;;5040809;28;20040;-77
2021/03/19 07:25:59;;;;;;;17.73;10.43;;;0.00;97.70;;;;;;5050798;28;20405;-77
2021/03/19 07:28:39;;;;;;;16.55;11.25;;;0.20;98.00;;;;;;5031213;28;20621;-77
2021/03/19 07:31:17;;;;;;;18.45;9.48;;;0.20;97.70;;;;;;5029693;28;20428;-77
2021/03/19 07:33:56;;;;;;;14.80;10.30;;;0.20;97.80;;;;;;5043880;28;20036;-77
2021/03/19 07:36:43;;;;;;;21.75;11.50;;;0.30;97.60;;;;;;5046401;28;20041;-77
2021/03/19 07:39:14;;;;;;;15.77;11.60;;;0.30;97.80;;;;;;5050201;28;20468;-77
2021/03/19 07:41:59;;;;;;;18.88;10.50;;;0.40;97.90;;;;;;5048319;28;20540;-77
2021/03/19 07:44:40;;;;;;;16.52;9.25;;;0.80;97.90;;;;;;5047652;28;20025;-77
2021/03/19 07:47:24;;;;;;;13.23;9.77;;;0.50;97.60;;;;;;5016114;28;20029;-77
2021/03/19 07:50:27;;;;;;;18.23;11.35;;;0.50;97.80;;;;;;5043620;28;20070;-77
2021/03/19 07:53:36;;;;;;;17.30;9.82;;;0.50;98.00;;;;;;5041529;28;20029;-77
2021/03/19 07:56:08;;;;;;;13.70;9.40;;;0.60;97.80;;;;;;5048000;28;20021;-77
2021/03/19 07:58:48;;;;;;;17.05;10.15;;;0.70;98.00;;;;;;5052629;28;20060;-77
2021/03/19 08:01:25;;;;;;;12.52;9.65;;;0.80;97.60;;;;;;5058436;28;20037;-77
2021/03/19 08:04:31;;;;;;;16.85;10.60;;;1.30;97.30;;;;;;5030964;28;20025;-77
2021/03/19 08:07:07;;;;;;;14.20;9.60;;;1.30;97.50;;;;;;5050156;28;20036;-77
2021/03/19 08:09:37;;;;;;;15.30;9.07;;;1.20;97.30;;;;;;5014156;28;20433;-77
2021/03/19 08:12:18;;;;;;;19.02;9.82;;;1.30;97.60;;;;;;5054937;28;20380;-77
2021/03/19 08:15:03;;;;;;;15.18;9.57;;;1.20;97.30;;;;;;5014612;28;20488;-77
2021/03/19 08:17:54;;;;;;;13.23;9.98;;;1.10;97.70;;;;;;5037935;28;20111;-77
2021/03/19 08:20:37;;;;;;;13.40;10.15;;;1.30;98.00;;;;;;5044071;28;20063;-77
2021/03/19 08:23:09;;;;;;;12.57;8.00;;;1.20;97.10;;;;;;5027669;28;20039;-77
2021/03/19 08:25:38;;;;;;;12.57;8.27;;;1.00;97.70;;;;;;5046399;28;20033;-77
2021/03/19 08:28:05;;;;;;;11.85;7.95;;;1.30;98.00;;;;;;5052616;28;20486;-77
2021/03/19 08:30:37;;;;;;;17.95;7.60;;;1.40;97.70;;;;;;5039232;28;20044;-77
2021/03/19 08:33:12;;;;;;;15.60;8.27;;;1.30;97.70;;;;;;5043341;28;20029;-78
2021/03/19 08:36:00;;;;;;;14.07;7.57;;;1.40;97.70;;;;;;5053813;28;20059;-77
2021/03/19 08:38:31;;;;;;;9.00;6.85;;;1.50;97.60;;;;;;5050624;28;20060;-77
2021/03/19 08:40:59;;;;;;;12.45;6.88;;;1.40;97.70;;;;;;5050070;28;20112;-77
2021/03/19 08:43:44;;;;;;;12.88;6.75;;;1.50;97.70;;;;;;5055937;28;20113;-77
2021/03/19 08:46:39;;;;;;;10.55;6.32;;;1.70;97.50;;;;;;5030281;28;20056;-77
2021/03/19 08:49:13;;;;;;;9.68;6.63;;;1.90;97.50;;;;;;5026956;28;20492;-77
2021/03/19 08:51:42;;;;;;;8.57;5.72;;;1.90;97.70;;;;;;5036106;28;20063;-77
2021/03/19 08:54:18;;;;;;;9.15;7.30;;;2.10;97.40;;;;;;5038875;28;20112;-77
2021/03/19 08:56:48;;;;;;;9.82;5.65;;;2.20;97.40;;;;;;5061427;28;20040;-77
2021/03/19 08:59:32;;;;;;;10.43;5.82;;;2.60;97.10;;;;;;5050589;28;20040;-77
2021/03/19 09:01:59;;;;;;;7.80;5.40;;;2.50;97.10;;;;;;5050440;28;20033;-77
2021/03/19 09:04:50;;;;;;;6.60;4.93;;;2.40;97.20;;;;;;5034020;28;20531;-77
2021/03/19 09:08:04;;;;;;;5.28;3.63;;;2.50;97.20;;;;;;5051209;28;20029;-77
2021/03/19 09:10:32;;;;;;;6.53;4.72;;;2.40;97.60;;;;;;4967671;28;20034;-77
2021/03/19 09:12:58;;;;;;;6.28;4.50;;;2.70;97.40;;;;;;5033240;28;20044;-77
2021/03/19 09:15:27;;;;;;;6.85;3.85;;;2.80;97.10;;;;;;5052745;28;20397;-78
2021/03/19 09:18:03;;;;;;;6.72;3.70;;;3.20;98.00;;;;;;5053930;28;20444;-77
2021/03/19 09:20:38;;;;;;;4.70;3.97;;;3.10;97.20;;;;;;5032068;28;20120;-77
2021/03/19 09:23:12;;;;;;;9.60;4.20;;;3.00;97.70;;;;;;5049888;28;20111;-77
2021/03/19 09:25:43;;;;;;;7.97;4.20;;;3.10;97.70;;;;;;5051629;28;20040;-77
2021/03/19 09:28:23;;;;;;;7.35;4.00;;;3.40;97.20;;;;;;5036046;28;20139;-77
2021/03/19 09:30:55;;;;;;;6.97;3.85;;;3.50;97.30;;;;;;5049295;28;20159;-77
2021/03/19 09:33:42;;;;;;;6.22;4.00;;;3.80;97.20;;;;;;5043720;28;20039;-77
2021/03/19 09:36:45;;;;;;;7.47;3.90;;;4.10;96.80;;;;;;5062141;28;20475;-77
2021/03/19 09:39:42;;;;;;;7.70;3.63;;;4.10;97.20;;;;;;5052173;28;20552;-77
2021/03/19 09:42:18;;;;;;;5.57;3.78;;;4.40;97.50;;;;;;5049396;28;20480;-77
2021/03/19 09:44:59;;;;;;;4.80;3.63;;;4.20;97.30;;;;;;5036149;28;20374;-77
2021/03/19 09:47:47;;;;;;;6.30;3.85;;;4.20;97.00;;;;;;5027457;28;20619;-77
2021/03/19 09:50:32;;;;;;;7.38;3.83;;;4.50;97.10;;;;;;5050659;28;20028;-77
2021/03/19 09:52:59;;;;;;;6.77;3.63;;;4.50;97.50;;;;;;5032831;28;20344;-77
2021/03/19 09:55:34;;;;;;;4.82;2.38;;;4.60;96.80;;;;;;5032490;28;20278;-77
2021/03/19 09:57:59;;;;;;;4.25;2.60;;;4.50;96.90;;;;;;5013089;28;20089;-77
2021/03/19 10:00:29;;;;;;;3.42;2.35;;;4.40;97.00;;;;;;5051646;28;20460;-77
2021/03/19 10:03:10;;;;;;;3.90;2.55;;;4.60;96.70;;;;;;5032393;28;20024;-77
2021/03/19 10:05:37;;;;;;;3.88;2.47;;;4.50;96.10;;;;;;5032608;28;20461;-77
2021/03/19 10:08:03;;;;;;;6.03;2.45;;;4.60;96.10;;;;;;5051356;28;20380;-77
2021/03/19 10:10:28;;;;;;;3.75;2.33;;;4.50;96.40;;;;;;5027849;28;20116;-76
2021/03/19 10:13:15;;;;;;;5.43;2.10;;;5.00;96.40;;;;;;5047783;28;20048;-77
2021/03/19 10:15:41;;;;;;;2.72;2.22;;;4.90;95.80;;;;;;5047038;28;20026;-76
2021/03/19 10:18:07;;;;;;;4.35;2.10;;;4.80;96.10;;;;;;5033514;28;20075;-77
2021/03/19 10:20:37;;;;;;;4.15;2.67;;;4.90;96.20;;;;;;5016748;28;20370;-77
2021/03/19 10:23:08;;;;;;;3.33;2.55;;;5.00;95.50;;;;;;5014281;28;20032;-77
2021/03/19 10:25:39;;;;;;;3.65;2.30;;;5.00;95.80;;;;;;5054888;28;20110;-77
2021/03/19 10:28:16;;;;;;;5.80;2.50;;;5.40;95.40;;;;;;5051391;28;20058;-77
2021/03/19 10:30:54;;;;;;;4.05;1.88;;;5.50;94.60;;;;;;5047091;28;20432;-77
2021/03/19 10:33:30;;;;;;;2.90;2.05;;;5.50;94.60;;;;;;5046109;28;20021;-77
2021/03/19 10:35:55;;;;;;;;;;;5.40;94.80;;;;;;5047769;28;20116;-77
2021/03/19 10:38:26;;;;;;;2.93;2.00;;;6.00;94.80;;;;;;5047400;28;20325;-77
2021/03/19 10:41:00;;;;;;;3.83;1.77;;;5.70;95.20;;;;;;5049767;28;20024;-77
2021/03/19 10:43:40;;;;;;;3.05;1.95;;;5.80;94.50;;;;;;5026233;28;20040;-77
2021/03/19 10:46:15;;;;;;;3.90;2.35;;;5.80;95.20;;;;;;5050822;28;20032;-77
2021/03/19 10:48:43;;;;;;;2.17;1.30;;;5.50;94.30;;;;;;5009621;28;20029;-77
2021/03/19 10:51:42;;;;;;;6.00;3.83;;;5.80;94.30;;;;;;5025850;28;20032;-77
2021/03/19 10:54:17;;;;;;;2.15;1.50;;;5.60;94.00;;;;;;5047599;28;20020;-77
2021/03/19 10:56:48;;;;;;;2.55;1.42;;;5.60;93.80;;;;;;5050652;28;20037;-77
2021/03/19 10:59:20;;;;;;;4.13;1.88;;;5.70;94.30;;;;;;5029281;28;20428;-77
2021/03/19 11:01:49;;;;;;;1.85;1.60;;;5.70;94.00;;;;;;5050649;28;20124;-77
2021/03/19 11:04:38;;;;;;;4.30;1.58;;;5.80;94.20;;;;;;5024732;28;20569;-77
2021/03/19 11:07:29;;;;;;;3.85;1.58;;;5.80;92.90;;;;;;5009673;28;20043;-77
2021/03/19 11:10:17;;;;;;;2.00;1.00;;;6.20;94.30;;;;;;5043870;28;20445;-77
2021/03/19 11:12:42;;;;;;;3.75;1.58;;;6.20;92.90;;;;;;5039112;28;20052;-77
2021/03/19 11:15:30;;;;;;;2.00;1.20;;;6.20;93.00;;;;;;5049368;28;20484;-77
2021/03/19 11:18:14;;;;;;;1.73;1.20;;;6.30;92.80;;;;;;5051756;28;20484;-77
2021/03/19 11:20:40;;;;;;;1.52;1.23;;;6.10;93.00;;;;;;5050446;28;20065;-77
2021/03/19 11:23:25;;;;;;;1.35;0.85;;;6.40;93.30;;;;;;5034015;28;20063;-77
2021/03/19 11:25:52;;;;;;;2.40;1.20;;;6.50;93.10;;;;;;5048788;28;20032;-77
2021/03/19 11:28:31;;;;;;;1.20;0.98;;;6.50;92.20;;;;;;5030114;28;20496;-77
2021/03/19 11:31:27;;;;;;;3.90;1.58;;;6.70;91.80;;;;;;5030193;28;20507;-78
2021/03/19 11:33:58;;;;;;;2.35;1.42;;;6.70;92.70;;;;;;5020242;28;20036;-77
2021/03/19 11:36:23;;;;;;;2.17;1.33;;;6.80;91.30;;;;;;5028898;28;20036;-77
2021/03/19 11:38:50;;;;;;;1.92;1.10;;;7.10;92.60;;;;;;5038327;28;20059;-77
2021/03/19 11:41:33;;;;;;;4.13;1.63;;;7.30;91.00;;;;;;5019427;28;20178;-77
2021/03/19 11:43:59;;;;;;;5.43;1.50;;;7.60;91.90;;;;;;5053099;28;20024;-78
2021/03/19 11:46:25;;;;;;;2.67;1.10;;;7.30;88.90;;;;;;5034113;28;20116;-77
2021/03/19 11:48:50;;;;;;;1.02;0.80;;;7.90;90.40;;;;;;5015837;28;22019;-77
2021/03/19 11:51:23;;;;;;;1.92;1.38;;;8.60;90.50;;;;;;5011682;28;20507;-77
2021/03/19 11:53:48;;;;;;;1.95;1.13;;;7.70;90.20;;;;;;5045383;28;20042;-77
2021/03/19 11:56:14;;;;;;;1.35;1.17;;;7.50;90.10;;;;;;5035758;28;20031;-77
2021/03/19 11:58:40;;;;;;;1.27;1.02;;;7.50;91.80;;;;;;5017830;28;20025;-77
2021/03/19 12:01:06;;;;;;;3.95;1.15;;;7.50;90.30;;;;;;5053319;28;20021;-77
2021/03/19 12:03:50;;;;;;;2.95;1.25;;;8.00;90.60;;;;;;5015966;28;20101;-78
2021/03/19 12:06:17;;;;;;;2.95;0.98;;;9.00;90.70;;;;;;5034535;28;20066;-77
2021/03/19 12:08:44;;;;;;;1.15;0.57;;;8.30;88.50;;;;;;5037548;28;20086;-77
2021/03/19 12:11:14;;;;;;;6.90;1.00;;;8.50;87.40;;;;;;5029121;28;20197;-77
2021/03/19 12:13:40;;;;;;;1.17;1.00;;;8.10;85.10;;;;;;5030305;28;20083;-78
2021/03/19 12:16:05;;;;;;;2.65;0.80;;;8.10;87.20;;;;;;3990763;28;10000406;-78
2021/03/19 12:18:31;;;;;;;1.50;0.90;;;8.40;90.60;;;;;;5044477;28;20055;-78
2021/03/19 12:20:57;;;;;;;1.60;1.08;;;8.80;90.00;;;;;;5051441;28;20418;-78
2021/03/19 12:23:24;;;;;;;1.63;0.77;;;8.80;89.60;;;;;;5016033;28;20035;-78
2021/03/19 12:25:50;;;;;;;0.70;0.50;;;9.10;88.70;;;;;;5017363;28;20116;-78
2021/03/19 12:28:20;;;;;;;1.77;0.70;;;9.60;87.20;;;;;;5005529;28;20115;-78
2021/03/19 12:30:46;;;;;;;0.63;0.52;;;9.40;86.60;;;;;;5036470;28;20399;-78
2021/03/19 12:33:13;;;;;;;0.82;0.50;;;9.30;89.60;;;;;;5048045;28;20112;-78
2021/03/19 12:35:41;;;;;;;1.65;0.90;;;9.50;85.10;;;;;;5035890;28;20388;-78
2021/03/19 12:38:07;;;;;;;3.28;0.90;;;9.30;83.30;;;;;;5034942;28;20052;-78
2021/03/19 12:40:33;;;;;;;1.77;0.80;;;9.40;81.90;;;;;;5013303;28;20064;-77
2021/03/19 12:42:58;;;;;;;1.20;0.93;;;9.20;81.30;;;;;;5011712;28;20032;-78
2021/03/19 12:45:26;;;;;;;1.08;0.77;;;9.20;81.50;;;;;;5028471;28;20076;-78
2021/03/19 12:47:52;;;;;;;1.70;0.90;;;9.70;83.00;;;;;;5015383;28;20067;-78
2021/03/19 12:50:21;;;;;;;0.77;0.50;;;9.80;84.90;;;;;;5020943;28;20049;-77
2021/03/19 12:52:47;;;;;;;1.08;0.60;;;9.90;85.00;;;;;;5020317;28;20032;-78
2021/03/19 12:55:13;;;;;;;3.95;1.00;;;10.10;78.30;;;;;;5040187;28;20025;-78
2021/03/19 12:57:39;;;;;;;1.75;0.88;;;9.90;82.20;;;;;;5012895;28;20728;-78
2021/03/19 13:00:05;;;;;;;2.47;1.05;;;10.10;80.20;;;;;;5035120;28;20035;-78
2021/03/19 13:02:31;;;;;;;1.65;1.27;;;9.90;78.40;;;;;;5056753;28;20037;-78
2021/03/19 13:04:56;;;;;;;2.33;1.10;;;9.60;76.30;;;;;;5038156;28;20024;-78
2021/03/19 13:07:22;;;;;;;1.40;0.80;;;9.50;76.40;;;;;;5014792;28;20429;-78
2021/03/19 13:09:48;;;;;;;3.72;1.08;;;9.40;77.00;;;;;;5047554;28;20033;-78
2021/03/19 13:12:13;;;;;;;3.05;0.73;;;9.40;75.10;;;;;;5047691;28;20025;-78
2021/03/19 13:14:39;;;;;;;2.75;0.85;;;9.50;81.30;;;;;;5026569;28;20195;-78